Time;durP1;ratioP1;P1;durP2;ratioP2;P2;SDS_P1;SDS_P2;PMS_P1;PMS_P2;Temp;Humidity;BMP_temperature;BMP_pressure;BME280_temperature;BME280_humidity;BME280_pressure;Samples;Min_cycle;Max_cycle;Signal;HPM_P1;HPM_P2
2023/05/11 00:00:14;;;;;;;25.35;10.30;;;;;;;11.99;93.32;101636.28;6100885;19;20002;-68
2023/05/11 00:02:19;;;;;;;27.30;11.18;;;;;;;12.00;93.70;101637.97;6103341;19;20476;-69
2023/05/11 00:04:25;;;;;;;25.02;11.00;;;;;;;11.99;93.91;101638.91;6104646;19;20349;-68
2023/05/11 00:06:31;;;;;;;31.88;12.45;;;;;;;11.94;93.69;101632.94;6104104;19;20354;-69
2023/05/11 00:08:36;;;;;;;27.83;11.68;;;;;;;11.98;93.82;101642.47;6101688;19;20007;-70
2023/05/11 00:10:41;;;;;;;27.98;11.48;;;;;;;11.94;93.81;101637.34;6102412;19;20499;-70
2023/05/11 00:12:46;;;;;;;26.98;10.68;;;;;;;11.96;93.45;101639.03;6105928;19;20483;-69
2023/05/11 00:14:54;;;;;;;27.75;10.68;;;;;;;11.96;93.36;101635.53;6101052;19;20099;-70
2023/05/11 00:16:59;;;;;;;29.92;11.68;;;;;;;11.94;93.32;101638.19;6099410;19;20312;-68
2023/05/11 00:19:05;;;;;;;25.60;10.27;;;;;;;11.95;93.47;101634.66;6102168;19;20010;-68
2023/05/11 00:21:10;;;;;;;31.10;10.88;;;;;;;11.96;94.15;101638.16;6104259;19;20371;-67
2023/05/11 00:23:15;;;;;;;30.58;10.85;;;;;;;11.97;93.90;101637.25;6103899;19;20031;-68
2023/05/11 00:25:23;;;;;;;26.85;11.10;;;;;;;11.98;93.62;101638.94;6103715;19;20369;-68
2023/05/11 00:27:30;;;;;;;26.92;10.63;;;;;;;11.99;93.86;101632.78;6104778;19;20015;-68
2023/05/11 00:29:35;;;;;;;29.17;10.88;;;;;;;12.00;93.49;101639.75;6102268;19;20011;-69
2023/05/11 00:31:46;;;;;;;30.08;11.85;;;;;;;11.98;93.79;101633.69;6101164;19;20022;-68
2023/05/11 00:33:53;;;;;;;28.77;11.40;;;;;;;11.97;94.05;101632.81;6103594;19;20009;-68
2023/05/11 00:35:59;;;;;;;32.65;12.07;;;;;;;11.97;94.19;101632.81;6101180;19;20533;-68
2023/05/11 00:38:04;;;;;;;31.45;12.85;;;;;;;11.96;94.41;101636.38;6102122;19;20003;-69
2023/05/11 00:40:10;;;;;;;32.97;12.00;;;;;;;11.97;94.77;101637.25;6098924;19;20011;-69
2023/05/11 00:42:16;;;;;;;29.63;13.10;;;;;;;11.99;94.15;101638.91;6101560;19;20468;-69
2023/05/11 00:44:21;;;;;;;35.00;13.60;;;;;;;11.99;94.33;101640.69;6103622;19;20010;-68
2023/05/11 00:46:26;;;;;;;38.22;14.65;;;;;;;11.99;94.32;101640.69;6103424;19;20010;-69
2023/05/11 00:48:34;;;;;;;33.70;15.57;;;;;;;12.01;94.22;101647.63;6100432;19;20002;-69
2023/05/11 00:50:39;;;;;;;39.58;17.58;;;;;;;11.99;94.12;101638.91;6102608;19;20519;-69
2023/05/11 00:52:45;;;;;;;44.35;17.45;;;;;;;11.96;94.44;101636.38;6097407;19;20408;-69
2023/05/11 00:54:50;;;;;;;41.92;17.60;;;;;;;11.97;94.26;101638.09;6104460;19;20011;-69
2023/05/11 00:56:56;;;;;;;41.58;17.38;;;;;;;11.97;94.48;101639.88;6099432;19;20576;-69
2023/05/11 00:59:01;;;;;;;43.45;17.50;;;;;;;11.93;94.60;101640.88;6100565;19;20776;-69
2023/05/11 01:01:06;;;;;;;46.63;17.80;;;;;;;11.95;94.67;101646.97;6100350;19;20613;-69
2023/05/11 01:03:13;;;;;;;43.53;15.73;;;;;;;11.89;94.94;101639.28;6098426;19;20017;-69
2023/05/11 01:05:21;;;;;;;34.40;13.50;;;;;;;11.93;94.94;101646.13;6104110;19;20416;-68
2023/05/11 01:07:34;;;;;;;38.83;15.00;;;;;;;11.85;95.81;101649.88;6102320;19;20031;-68
2023/05/11 01:09:49;;;;;;;33.00;13.33;;;;;;;11.84;95.88;101653.41;6099489;19;20015;-68
2023/05/11 01:12:02;;;;;;;37.50;14.93;;;;;;;11.82;95.71;101655.25;6104336;19;20017;-68
2023/05/11 01:14:14;;;;;;;38.33;14.77;;;;;;;11.82;95.98;101649.09;6098908;19;20012;-70
2023/05/11 01:16:23;;;;;;;36.22;13.05;;;;;;;11.80;95.95;101656.22;6102356;19;20021;-70
2023/05/11 01:18:33;;;;;;;34.53;14.20;;;;;;;11.81;96.06;101648.25;6099117;19;20338;-70
2023/05/11 01:20:41;;;;;;;39.10;16.00;;;;;;;11.83;96.02;101646.44;6101503;19;20616;-68
2023/05/11 01:23:13;;;;;;;34.50;13.77;;;;;;;11.86;95.17;101646.34;6100875;19;20014;-70
2023/05/11 01:25:34;;;;;;;36.17;14.43;;;;;;;11.89;95.50;101645.41;6097428;19;20017;-70
2023/05/11 01:27:58;;;;;;;37.10;14.82;;;;;;;11.91;95.25;101642.72;6100543;19;20074;-70
2023/05/11 01:30:35;;;;;;;36.08;14.80;;;;;;;11.89;95.71;101637.50;6099548;19;20018;-71
2023/05/11 01:32:42;;;;;;;33.53;13.75;;;;;;;11.90;95.58;101635.72;6101210;19;20010;-71
2023/05/11 01:34:48;;;;;;;34.22;17.38;;;;;;;11.89;95.40;101634.84;6101786;19;20010;-70
2023/05/11 01:36:58;;;;;;;35.03;13.80;;;;;;;11.90;95.02;101635.72;6102262;19;20484;-71
2023/05/11 01:39:07;;;;;;;37.97;14.80;;;;;;;11.88;95.31;101640.19;6102460;19;19999;-70
2023/05/11 01:41:16;;;;;;;34.65;14.10;;;;;;;11.88;95.32;101632.28;6094820;19;20367;-70
2023/05/11 01:43:30;;;;;;;38.00;14.65;;;;;;;11.87;95.52;101636.69;6101243;19;20040;-68
2023/05/11 01:45:40;;;;;;;37.08;15.07;;;;;;;11.86;95.43;101632.34;6101589;19;20082;-69
2023/05/11 01:47:50;;;;;;;37.17;14.85;;;;;;;11.85;95.51;101639.34;6102426;19;20018;-69
2023/05/11 01:49:57;;;;;;;38.72;15.93;;;;;;;11.85;95.27;101641.13;6100366;19;20060;-70
2023/05/11 01:52:04;;;;;;;38.47;14.60;;;;;;;11.89;95.49;101632.22;6097830;19;20526;-69
2023/05/11 01:54:10;;;;;;;30.98;14.73;;;;;;;11.89;95.31;101641.91;6098613;19;20018;-70
2023/05/11 01:56:17;;;;;;;36.70;13.38;;;;;;;11.88;95.16;101641.06;6101167;19;20360;-70
2023/05/11 01:58:25;;;;;;;36.78;15.07;;;;;;;11.90;95.39;101643.63;6099690;19;20007;-69
2023/05/11 02:00:31;;;;;;;38.63;15.00;;;;;;;11.90;95.52;101641.88;6099270;19;20011;-69
2023/05/11 02:02:40;;;;;;;34.00;14.60;;;;;;;11.90;95.77;101640.97;6099828;19;20078;-69
2023/05/11 02:04:47;;;;;;;37.33;16.33;;;;;;;11.89;95.27;101641.91;6099496;19;20014;-68
2023/05/11 02:06:54;;;;;;;41.03;15.25;;;;;;;11.91;95.69;101648.00;6099925;19;20014;-69
2023/05/11 02:09:02;;;;;;;35.72;14.40;;;;;;;11.86;95.54;101649.00;6100179;19;20007;-69
2023/05/11 02:11:09;;;;;;;38.28;16.40;;;;;;;11.93;95.37;101659.31;6101285;19;20074;-68
2023/05/11 02:13:17;;;;;;;37.35;15.57;;;;;;;11.91;95.56;101658.53;6095416;19;20025;-69
2023/05/11 02:15:23;;;;;;;43.50;17.13;;;;;;;11.92;95.43;101649.69;6098978;19;20098;-69
2023/05/11 02:17:30;;;;;;;38.30;15.98;;;;;;;11.92;95.51;101647.91;6103362;19;20010;-66
2023/05/11 02:19:44;;;;;;;38.95;15.77;;;;;;;11.90;95.64;101655.03;6103559;19;20095;-68
2023/05/11 02:21:51;;;;;;;36.00;16.45;;;;;;;11.89;96.04;101652.44;6100184;19;20447;-68
2023/05/11 02:23:56;;;;;;;40.20;16.63;;;;;;;11.93;95.95;101648.78;6101858;19;20015;-68
2023/05/11 02:26:02;;;;;;;39.08;16.52;;;;;;;11.92;95.95;101652.34;6102553;19;20773;-68
2023/05/11 02:28:07;;;;;;;46.70;16.50;;;;;;;11.93;95.72;101651.41;6101955;19;20018;-69
2023/05/11 02:30:13;;;;;;;41.88;15.40;;;;;;;11.94;95.85;101650.53;6099760;19;20030;-69
2023/05/11 02:32:21;;;;;;;38.72;14.93;;;;;;;11.92;95.98;101657.59;6101024;19;20002;-69
2023/05/11 02:34:30;;;;;;;36.38;14.27;;;;;;;11.92;96.39;101657.59;6101955;19;20090;-69
2023/05/11 02:36:40;;;;;;;40.53;16.67;;;;;;;11.93;95.89;101665.47;6101640;19;20050;-69
2023/05/11 02:38:49;;;;;;;39.65;15.70;;;;;;;11.93;95.97;101661.94;6101035;19;20010;-69
2023/05/11 02:41:00;;;;;;;40.85;16.05;;;;;;;11.92;95.99;101657.59;6105737;19;20381;-69
2023/05/11 02:43:10;;;;;;;40.60;16.55;;;;;;;11.88;96.50;101656.84;6108337;19;20014;-69
2023/05/11 02:45:18;;;;;;;42.80;13.57;;;;;;;11.90;96.34;101659.41;6101640;19;20534;-68
2023/05/11 02:47:28;;;;;;;39.30;14.38;;;;;;;11.89;96.16;101660.34;6106673;19;20014;-68
2023/05/11 02:49:35;;;;;;;38.60;16.63;;;;;;;11.90;96.71;101667.31;6102777;19;20029;-68
2023/05/11 02:51:47;;;;;;;40.28;15.27;;;;;;;11.89;96.65;101658.56;6103752;19;20007;-68
2023/05/11 02:53:56;;;;;;;40.85;15.40;;;;;;;11.92;96.86;101650.56;6100871;19;20006;-68
2023/05/11 02:56:02;;;;;;;43.63;15.18;;;;;;;11.91;96.72;101663.78;6106006;19;20524;-68
2023/05/11 02:58:07;;;;;;;39.20;16.10;;;;;;;11.88;96.72;101658.63;6103920;19;20003;-68
2023/05/11 03:00:13;;;;;;;44.35;15.85;;;;;;;11.86;96.93;101656.03;6103447;19;20517;-69
2023/05/11 03:02:18;;;;;;;40.67;16.17;;;;;;;11.85;96.61;101652.50;6102639;19;20007;-69
2023/05/11 03:04:23;;;;;;;39.28;15.43;;;;;;;11.86;97.14;101653.41;6105008;19;20006;-69
2023/05/11 03:06:32;;;;;;;45.70;15.82;;;;;;;11.87;96.84;101663.00;6105949;19;20169;-69
2023/05/11 03:08:40;;;;;;;38.78;16.10;;;;;;;11.85;96.93;101655.16;6104891;19;20014;-69
2023/05/11 03:10:46;;;;;;;42.63;16.42;;;;;;;11.86;97.06;101659.53;6105655;19;20011;-69
2023/05/11 03:12:51;;;;;;;39.25;16.02;;;;;;;11.85;97.38;101655.16;6106016;19;20007;-69
2023/05/11 03:14:56;;;;;;;47.13;17.15;;;;;;;11.82;97.19;101651.72;6102868;19;20038;-69
2023/05/11 03:17:03;;;;;;;41.53;17.58;;;;;;;11.83;97.72;101649.06;6106211;19;20067;-69
2023/05/11 03:19:09;;;;;;;42.25;16.42;;;;;;;11.83;97.55;101646.44;6100880;19;20064;-69
2023/05/11 03:21:19;;;;;;;43.67;18.30;;;;;;;11.85;97.67;101655.16;6105707;19;20010;-69
2023/05/11 03:23:25;;;;;;;45.35;16.58;;;;;;;11.84;97.89;101650.78;6103735;19;20011;-69
2023/05/11 03:25:33;;;;;;;41.67;16.42;;;;;;;11.88;97.22;101650.72;6107184;19;20015;-69
2023/05/11 03:27:43;;;;;;;43.08;17.45;;;;;;;11.85;97.26;101647.25;6102443;19;20649;-69
2023/05/11 03:29:50;;;;;;;47.22;18.15;;;;;;;11.82;97.93;101650.00;6105830;19;20020;-69
2023/05/11 03:31:56;;;;;;;46.42;16.45;;;;;;;11.83;97.76;101648.22;6103504;19;20015;-69
2023/05/11 03:34:01;;;;;;;47.38;18.98;;;;;;;11.81;97.88;101647.38;6106945;19;20625;-69
2023/05/11 03:36:07;;;;;;;42.60;17.70;;;;;;;11.82;97.52;101644.72;6104899;19;20067;-69
2023/05/11 03:38:14;;;;;;;43.50;15.90;;;;;;;11.82;97.60;101650.00;6103958;19;20002;-69
2023/05/11 03:40:22;;;;;;;45.10;18.05;;;;;;;11.82;97.92;101639.44;6102546;19;20448;-69
2023/05/11 03:42:32;;;;;;;45.10;18.02;;;;;;;11.84;97.85;101648.13;6105195;19;20014;-69
2023/05/11 03:44:38;;;;;;;43.58;17.52;;;;;;;11.84;97.70;101644.66;6105770;19;20433;-69
2023/05/11 03:46:47;;;;;;;44.53;18.23;;;;;;;11.84;97.74;101642.00;6102840;19;20014;-69
2023/05/11 03:48:53;;;;;;;48.08;17.95;;;;;;;11.83;97.94;101640.31;6105573;19;20010;-69
2023/05/11 03:51:05;;;;;;;51.20;19.38;;;;;;;11.82;97.75;101639.44;6101295;19;20015;-69
2023/05/11 03:53:11;;;;;;;51.85;18.13;;;;;;;11.84;97.73;101634.97;6096409;19;20006;-69
2023/05/11 03:55:16;;;;;;;46.05;17.75;;;;;;;11.84;97.56;101636.75;6102333;19;20024;-69
2023/05/11 03:57:21;;;;;;;49.03;17.67;;;;;;;11.83;97.81;101642.94;6104081;19;20017;-69
2023/05/11 03:59:29;;;;;;;45.45;18.40;;;;;;;11.83;97.88;101640.31;6101452;19;20011;-69
2023/05/11 04:01:34;;;;;;;55.28;19.77;;;;;;;11.82;98.10;101633.28;6102493;19;20011;-69
2023/05/11 04:03:50;;;;;;;44.95;17.10;;;;;;;11.79;98.02;101639.53;6100258;19;20079;-69
2023/05/11 04:05:56;;;;;;;48.55;16.88;;;;;;;11.80;97.75;101636.00;6101926;19;20500;-69
2023/05/11 04:08:04;;;;;;;49.15;17.33;;;;;;;11.78;97.80;101632.56;6102984;19;20367;-68
2023/05/11 04:10:10;;;;;;;50.15;18.45;;;;;;;11.81;97.79;101628.94;6104477;19;20007;-69
2023/05/11 04:12:16;;;;;;;46.30;17.20;;;;;;;11.80;97.67;101636.00;6103960;19;20468;-69
2023/05/11 04:14:21;;;;;;;49.83;18.27;;;;;;;11.79;97.82;101634.25;6100919;19;20386;-68
2023/05/11 04:16:29;;;;;;;48.97;18.02;;;;;;;11.80;97.89;101643.91;6104340;19;20011;-70
2023/05/11 04:18:34;;;;;;;51.92;19.17;;;;;;;11.83;98.21;101646.44;6100806;19;20020;-68
2023/05/11 04:20:39;;;;;;;48.15;18.30;;;;;;;11.82;97.90;101642.09;6103066;19;20014;-69
2023/05/11 04:22:44;;;;;;;48.40;17.83;;;;;;;11.82;97.81;101650.00;6103773;19;20011;-68
2023/05/11 04:24:49;;;;;;;45.38;17.35;;;;;;;11.84;97.74;101642.00;6104454;19;20044;-69
2023/05/11 04:26:59;;;;;;;48.95;17.25;;;;;;;11.84;97.87;101647.28;6103652;19;20002;-68
2023/05/11 04:29:04;;;;;;;54.33;19.85;;;;;;;11.90;97.51;101648.88;6102322;19;20469;-69
2023/05/11 04:31:09;;;;;;;47.03;17.70;;;;;;;11.89;97.75;101647.16;6099439;19;20075;-68
2023/05/11 04:33:17;;;;;;;43.90;16.25;;;;;;;11.90;97.85;101646.25;6105105;19;20013;-68
2023/05/11 04:35:24;;;;;;;51.22;19.10;;;;;;;11.92;97.61;101649.69;6103748;19;20010;-70
2023/05/11 04:37:30;;;;;;;43.25;17.77;;;;;;;11.94;97.70;101656.63;6102562;19;20018;-68
2023/05/11 04:39:35;;;;;;;47.63;17.15;;;;;;;11.94;97.55;101653.16;6101630;19;20374;-68
2023/05/11 04:41:40;;;;;;;46.08;17.98;;;;;;;11.97;97.81;101653.03;6102323;19;20052;-68
2023/05/11 04:43:48;;;;;;;47.97;20.40;;;;;;;11.97;97.87;101653.03;6101800;19;20413;-68
2023/05/11 04:45:53;;;;;;;51.58;18.83;;;;;;;11.99;97.64;101648.59;6096990;19;20017;-68
2023/05/11 04:47:59;;;;;;;52.97;17.50;;;;;;;12.01;97.87;101650.25;6100439;19;20002;-68
2023/05/11 04:50:08;;;;;;;48.83;18.02;;;;;;;12.05;97.83;101656.28;6100849;19;20078;-68
2023/05/11 04:52:13;;;;;;;52.42;18.60;;;;;;;12.13;97.42;101651.59;6096606;19;20016;-69
2023/05/11 04:54:18;;;;;;;49.47;19.00;;;;;;;12.13;97.42;101648.97;6098696;19;20341;-69
2023/05/11 04:56:23;;;;;;;50.72;18.75;;;;;;;12.14;97.39;101653.34;6101193;19;20086;-68
2023/05/11 04:58:31;;;;;;;48.83;19.35;;;;;;;12.15;97.27;101656.84;6100649;19;20010;-70
2023/05/11 05:00:37;;;;;;;49.15;19.35;;;;;;;12.17;96.79;101653.25;6102722;19;20018;-68
2023/05/11 05:02:42;;;;;;;44.90;19.30;;;;;;;12.21;96.75;101661.88;6100465;19;20603;-68
2023/05/11 05:04:47;;;;;;;52.25;18.30;;;;;;;12.26;96.74;101660.81;6101131;19;20007;-68
2023/05/11 05:06:54;;;;;;;49.63;18.73;;;;;;;12.26;96.25;101658.19;6102488;19;20074;-69
2023/05/11 05:08:59;;;;;;;45.60;18.48;;;;;;;12.33;95.97;101665.91;6103010;19;20010;-69
2023/05/11 05:11:04;;;;;;;49.78;20.20;;;;;;;12.39;95.62;101661.25;6098193;19;20639;-69
2023/05/11 05:13:09;;;;;;;47.05;18.60;;;;;;;12.35;95.57;101679.84;6098217;19;20007;-68
2023/05/11 05:15:14;;;;;;;46.25;18.08;;;;;;;12.37;95.52;101678.88;6102074;19;20003;-68
2023/05/11 05:17:19;;;;;;;43.97;16.55;;;;;;;12.41;95.54;101677.88;6099757;19;20182;-69
2023/05/11 05:19:24;;;;;;;48.97;17.17;;;;;;;12.45;95.49;101683.91;6103421;19;20018;-68
2023/05/11 05:21:31;;;;;;;43.90;17.73;;;;;;;12.46;95.44;101683.88;6102126;19;20464;-69
2023/05/11 05:23:38;;;;;;;46.30;16.75;;;;;;;12.52;94.73;101688.06;6102041;19;20025;-69
2023/05/11 05:25:43;;;;;;;46.80;19.92;;;;;;;12.51;95.01;101686.34;6099412;19;20006;-69
2023/05/11 05:27:48;;;;;;;43.97;18.73;;;;;;;12.51;94.91;101691.63;6102874;19;20468;-70
2023/05/11 05:29:53;;;;;;;43.90;17.23;;;;;;;12.48;94.36;101692.59;6103056;19;20010;-70
2023/05/11 05:31:59;;;;;;;43.88;17.92;;;;;;;12.56;94.42;101700.22;6099956;19;20007;-69
2023/05/11 05:34:05;;;;;;;48.95;18.27;;;;;;;12.58;94.24;101701.00;6100608;19;20438;-69
2023/05/11 05:36:10;;;;;;;41.95;16.67;;;;;;;12.58;93.63;101708.91;6102139;19;20034;-69
2023/05/11 05:38:16;;;;;;;45.15;15.98;;;;;;;12.57;93.66;101704.56;6098006;19;20564;-69
2023/05/11 05:40:23;;;;;;;44.65;16.98;;;;;;;12.61;93.81;101706.22;6101645;19;20052;-70
2023/05/11 05:42:32;;;;;;;43.25;15.98;;;;;;;12.58;93.89;101706.28;6101972;19;20010;-69
2023/05/11 05:44:36;;;;;;;47.72;16.52;;;;;;;12.60;93.42;101706.25;6103855;19;20253;-69
2023/05/11 05:46:41;;;;;;;39.70;16.17;;;;;;;12.68;93.32;101705.03;6103326;19;20514;-69
2023/05/11 05:48:47;;;;;;;45.55;18.55;;;;;;;12.67;93.20;101705.97;6101535;19;20366;-69
2023/05/11 05:50:52;;;;;;;45.65;17.98;;;;;;;12.66;93.48;101706.88;6101558;19;20007;-69
2023/05/11 05:52:57;;;;;;;53.10;20.52;;;;;;;12.70;93.38;101707.66;6098904;19;20090;-69
2023/05/11 05:55:03;;;;;;;41.80;17.98;;;;;;;12.79;93.32;101709.09;6096084;19;20008;-69
2023/05/11 05:57:10;;;;;;;48.25;18.50;;;;;;;12.85;93.58;101715.00;6095777;19;20010;-68
2023/05/11 05:59:22;;;;;;;51.80;18.75;;;;;;;12.94;93.34;101714.66;6097542;19;20475;-69
2023/05/11 06:01:27;;;;;;;47.10;17.05;;;;;;;13.00;92.85;101721.50;6098294;19;23491;-69
2023/05/11 06:03:32;;;;;;;44.17;17.15;;;;;;;13.04;92.76;101719.63;6097356;19;20028;-70
2023/05/11 06:05:37;;;;;;;49.85;18.88;;;;;;;13.08;92.58;101715.94;6096171;19;20074;-68
2023/05/11 06:07:42;;;;;;;48.45;17.45;;;;;;;13.11;92.30;101727.25;6098579;19;20010;-70
2023/05/11 06:09:55;;;;;;;49.05;19.77;;;;;;;12.97;92.50;101721.59;6095859;19;20013;-69
2023/05/11 06:12:00;;;;;;;46.65;18.75;;;;;;;13.08;92.26;101730.00;6098774;19;20028;-69
2023/05/11 06:14:08;;;;;;;41.13;17.60;;;;;;;13.20;92.03;101727.84;6101033;19;20478;-69
2023/05/11 06:16:13;;;;;;;46.40;17.65;;;;;;;13.23;92.25;101722.44;6097284;19;20494;-69
2023/05/11 06:18:18;;;;;;;52.70;19.58;;;;;;;13.23;91.98;101723.28;6097194;19;20058;-69
2023/05/11 06:20:24;;;;;;;50.33;20.33;;;;;;;13.22;91.46;101720.69;6097312;19;20314;-69
2023/05/11 06:22:31;;;;;;;48.40;19.70;;;;;;;13.30;91.46;101721.34;6097476;19;20098;-71
2023/05/11 06:24:36;;;;;;;56.88;20.13;;;;;;;13.34;91.13;101720.28;6095712;19;20019;-68
2023/05/11 06:26:42;;;;;;;53.33;20.05;;;;;;;13.42;91.74;101723.47;6097608;19;20049;-70
2023/05/11 06:28:47;;;;;;;57.20;20.85;;;;;;;13.46;91.46;101721.59;6094309;19;20003;-70
2023/05/11 06:30:58;;;;;;;50.28;20.65;;;;;;;13.39;91.79;101728.88;6096038;19;20011;-70
2023/05/11 06:33:03;;;;;;;60.47;23.25;;;;;;;13.37;92.83;101731.56;6094287;19;20048;-70
2023/05/11 06:35:09;;;;;;;49.42;19.27;;;;;;;13.39;93.25;101723.59;6091363;19;20006;-70
2023/05/11 06:37:19;;;;;;;59.42;21.55;;;;;;;13.26;94.03;101723.19;6094365;19;20010;-69
2023/05/11 06:39:24;;;;;;;55.60;21.50;;;;;;;13.27;93.03;101729.34;6094759;19;20006;-72
2023/05/11 06:41:31;;;;;;;58.83;21.30;;;;;;;13.28;92.63;101731.94;6100686;19;20015;-71
2023/05/11 06:43:36;;;;;;;56.10;19.75;;;;;;;13.44;93.21;101728.72;6098192;19;20007;-70
2023/05/11 06:45:41;;;;;;;55.92;21.52;;;;;;;13.51;93.79;101730.22;6100950;19;20051;-70
2023/05/11 06:47:49;;;;;;;51.25;20.65;;;;;;;13.63;94.03;101731.50;6096446;19;20019;-69
2023/05/11 06:49:56;;;;;;;54.97;21.38;;;;;;;13.63;93.17;101734.16;6099145;19;20014;-71
2023/05/11 06:52:01;;;;;;;56.90;22.08;;;;;;;13.58;92.84;101732.53;6099657;19;20028;-69
2023/05/11 06:54:06;;;;;;;55.85;20.58;;;;;;;13.57;92.78;101733.47;6099332;19;20031;-70
2023/05/11 06:56:11;;;;;;;46.63;16.98;;;;;;;13.64;91.82;101744.66;6100782;19;20117;-70
2023/05/11 06:58:19;;;;;;;46.47;17.52;;;;;;;13.70;92.45;101735.63;6099600;19;20489;-70
2023/05/11 07:00:24;;;;;;;46.42;19.00;;;;;;;13.82;92.68;101733.38;6096505;19;20014;-70
2023/05/11 07:02:30;;;;;;;39.40;16.30;;;;;;;13.72;91.33;101741.72;6093692;19;20007;-70
2023/05/11 07:04:38;;;;;;;43.42;16.33;;;;;;;13.93;91.96;101735.59;6094220;19;20003;-70
2023/05/11 07:06:45;;;;;;;38.47;16.45;;;;;;;13.93;92.52;101742.63;6098448;19;20006;-70
2023/05/11 07:08:50;;;;;;;41.95;17.13;;;;;;;14.05;91.41;101743.00;6094875;19;20017;-71
2023/05/11 07:10:56;;;;;;;45.42;18.70;;;;;;;14.18;91.34;101746.00;6097457;19;20014;-71
2023/05/11 07:13:01;;;;;;;39.83;16.58;;;;;;;13.77;90.36;101747.66;6095603;19;20085;-70
2023/05/11 07:15:06;;;;;;;38.47;15.93;;;;;;;13.80;89.11;101744.91;6098784;19;20023;-71
2023/05/11 07:17:11;;;;;;;39.72;16.92;;;;;;;13.89;89.83;101744.53;6092561;19;20417;-70
2023/05/11 07:19:20;;;;;;;38.65;16.58;;;;;;;13.87;90.02;101749.03;6098442;19;20406;-70
2023/05/11 07:21:29;;;;;;;39.85;18.02;;;;;;;14.09;90.66;101751.69;6096950;19;20048;-70
2023/05/11 07:23:34;;;;;;;38.65;17.48;;;;;;;14.31;91.39;101749.00;6099878;19;20019;-71
2023/05/11 07:25:39;;;;;;;49.42;20.23;;;;;;;14.41;89.92;101754.78;6099810;19;20085;-71
2023/05/11 07:27:44;;;;;;;50.85;19.45;;;;;;;14.45;90.90;101749.28;6103924;19;20098;-71
2023/05/11 07:29:49;;;;;;;42.65;19.50;;;;;;;14.67;90.89;101743.13;6106518;19;20035;-71
2023/05/11 07:31:54;;;;;;;52.95;21.27;;;;;;;14.67;88.90;101748.41;6104681;19;20086;-71
2023/05/11 07:33:59;;;;;;;60.05;22.13;;;;;;;14.37;89.39;101746.09;6106442;19;20559;-71
2023/05/11 07:36:05;;;;;;;46.95;19.48;;;;;;;14.61;90.36;101749.53;6105734;19;20002;-71
2023/05/11 07:38:12;;;;;;;54.63;21.80;;;;;;;14.87;90.35;101751.03;6104832;19;20014;-70
2023/05/11 07:40:18;;;;;;;59.28;23.17;;;;;;;14.97;89.58;101751.50;6105458;19;20002;-70
2023/05/11 07:42:23;;;;;;;61.42;25.05;;;;;;;15.09;88.63;101750.09;6104525;19;20696;-70
2023/05/11 07:44:31;;;;;;;55.25;23.33;;;;;;;14.92;89.09;101742.91;6103601;19;20015;-70
2023/05/11 07:46:36;;;;;;;58.38;24.05;;;;;;;15.58;84.97;101737.22;6101999;19;20514;-71
2023/05/11 07:48:41;;;;;;;54.70;23.30;;;;;;;15.45;85.62;101744.88;6103172;19;20352;-71
2023/05/11 07:50:49;;;;;;;57.13;24.48;;;;;;;15.69;86.45;101740.28;6105236;19;20010;-69
2023/05/11 07:52:54;;;;;;;64.25;24.80;;;;;;;15.67;83.82;101750.06;6099179;19;20094;-69
2023/05/11 07:55:02;;;;;;;60.95;26.38;;;;;;;15.92;83.21;101741.81;6103439;19;20495;-71
2023/05/11 07:57:07;;;;;;;58.90;26.02;;;;;;;16.37;83.05;101740.47;6102131;19;20511;-68
2023/05/11 07:59:12;;;;;;;54.22;22.95;;;;;;;15.82;83.81;101739.69;6103181;19;20035;-68
2023/05/11 08:01:17;;;;;;;48.42;20.95;;;;;;;15.46;82.96;101740.47;6103035;19;20009;-68
2023/05/11 08:03:22;;;;;;;55.13;21.30;;;;;;;15.71;84.42;101749.00;6100065;19;20015;-68
2023/05/11 08:05:31;;;;;;;59.72;24.13;;;;;;;15.82;85.00;101755.59;6103862;19;20397;-69
2023/05/11 08:07:36;;;;;;;59.58;25.05;;;;;;;15.43;84.43;101749.44;6104061;19;20021;-69
2023/05/11 08:09:45;;;;;;;50.42;23.40;;;;;;;15.46;85.10;101759.03;6104699;19;20017;-70
2023/05/11 08:11:54;;;;;;;42.55;21.00;;;;;;;15.13;83.48;101757.81;6104874;19;20400;-70
2023/05/11 08:14:00;;;;;;;47.45;19.92;;;;;;;15.30;83.63;101756.22;6102526;19;20070;-71
2023/05/11 08:16:05;;;;;;;49.20;19.75;;;;;;;15.15;83.37;101757.75;6100890;19;20010;-71
2023/05/11 08:18:10;;;;;;;36.88;15.32;;;;;;;14.79;80.79;101760.25;6099515;19;20031;-72
2023/05/11 08:20:15;;;;;;;37.85;16.73;;;;;;;14.87;82.74;101761.63;6103227;19;20638;-73
2023/05/11 08:22:20;;;;;;;45.47;17.48;;;;;;;14.66;84.29;101752.81;6101519;19;20436;-72
2023/05/11 08:24:26;;;;;;;42.60;17.60;;;;;;;14.78;85.01;101751.44;6103135;19;20083;-73
2023/05/11 08:26:32;;;;;;;45.55;16.80;;;;;;;14.74;83.96;101757.78;6104240;19;21527;-73
2023/05/11 08:28:41;;;;;;;37.92;15.52;;;;;;;14.90;85.88;101758.84;6103120;19;20450;-70
2023/05/11 08:30:46;;;;;;;34.83;16.30;;;;;;;15.09;85.19;101763.34;6103244;19;20018;-70
2023/05/11 08:32:51;;;;;;;36.85;16.42;;;;;;;15.05;83.18;101759.09;6103127;19;20033;-73
2023/05/11 08:35:02;;;;;;;37.10;15.88;;;;;;;15.09;82.59;101766.84;6101084;19;20022;-70
2023/05/11 08:37:08;;;;;;;35.72;14.70;;;;;;;15.10;84.07;101768.53;6097859;19;20010;-70
2023/05/11 08:39:13;;;;;;;36.70;16.83;;;;;;;15.03;82.18;101763.59;6102880;19;20119;-70
2023/05/11 08:41:19;;;;;;;40.67;18.35;;;;;;;14.95;82.95;101763.94;6102309;19;20010;-70
2023/05/11 08:43:25;;;;;;;40.67;17.13;;;;;;;15.05;82.42;101762.59;6103154;19;20224;-70
2023/05/11 08:45:35;;;;;;;39.17;16.95;;;;;;;14.89;81.13;101762.41;6103071;19;20014;-71
2023/05/11 08:47:41;;;;;;;38.25;17.92;;;;;;;15.06;82.77;101760.81;6102853;19;20006;-71
2023/05/11 08:49:50;;;;;;;44.00;18.73;;;;;;;15.27;83.29;101761.63;6099635;19;20010;-70
2023/05/11 08:51:55;;;;;;;42.03;17.85;;;;;;;15.23;82.98;101758.28;6101398;19;20018;-70
2023/05/11 08:54:00;;;;;;;38.17;16.20;;;;;;;15.41;82.31;101763.66;6099419;19;20546;-71
2023/05/11 08:56:09;;;;;;;44.45;19.48;;;;;;;15.41;80.89;101755.72;6100598;19;20456;-70
2023/05/11 08:58:18;;;;;;;42.50;18.10;;;;;;;15.46;81.10;101759.03;6101868;19;20006;-70
2023/05/11 09:00:24;;;;;;;36.75;15.40;;;;;;;15.07;79.38;101758.09;6100353;19;20086;-70
2023/05/11 09:02:34;;;;;;;35.78;16.52;;;;;;;15.16;80.34;101767.41;6099768;19;20015;-71
2023/05/11 09:04:40;;;;;;;33.75;16.13;;;;;;;15.19;80.26;101761.97;6100842;19;20490;-71
2023/05/11 09:06:45;;;;;;;42.17;17.95;;;;;;;15.31;81.49;101760.56;6102827;19;20508;-70
2023/05/11 09:08:50;;;;;;;42.20;19.42;;;;;;;15.39;80.40;101760.22;6101616;19;20500;-70
2023/05/11 09:10:56;;;;;;;40.97;18.48;;;;;;;15.17;78.91;101765.66;6100825;19;20003;-71
2023/05/11 09:13:01;;;;;;;40.50;17.15;;;;;;;15.44;81.14;101763.53;6104156;19;20006;-70
2023/05/11 09:15:07;;;;;;;44.05;18.15;;;;;;;15.54;81.31;101765.69;6098986;19;20857;-70
2023/05/11 09:17:14;;;;;;;45.83;20.65;;;;;;;15.42;81.73;101763.59;6096720;19;20081;-70
2023/05/11 09:19:22;;;;;;;43.20;19.80;;;;;;;15.63;80.66;101764.38;6101480;19;20014;-69
2023/05/11 09:21:27;;;;;;;48.28;22.20;;;;;;;15.87;79.77;101759.72;6100316;19;20037;-69
2023/05/11 09:23:34;;;;;;;43.85;19.17;;;;;;;16.06;79.49;101754.41;6098751;19;20014;-70
2023/05/11 09:25:39;;;;;;;43.78;18.58;;;;;;;16.29;79.01;101760.38;6100823;19;20011;-70
2023/05/11 09:27:45;;;;;;;45.53;19.55;;;;;;;16.23;78.61;101759.72;6101730;19;20031;-69
2023/05/11 09:29:50;;;;;;;41.95;18.50;;;;;;;16.08;79.36;101755.19;6100526;19;20015;-69
2023/05/11 09:31:56;;;;;;;45.40;19.98;;;;;;;16.11;78.75;101757.69;6100419;19;20294;-69
2023/05/11 09:34:11;;;;;;;42.47;17.92;;;;;;;16.19;78.91;101760.84;6099380;19;20047;-69
2023/05/11 09:36:31;;;;;;;40.53;17.73;;;;;;;16.05;78.89;101752.69;6101964;19;20051;-69